Aiwamaru — JD2602 — position and weather

sailwx.info

Track history (hours):
 
Tides and Currents Weather Stations Pressure Air Temp Water Temp Dewpoint Dewpoint Depression Visibility Wind Speed Wind Dir Waves Ship Positions

Aiwamaru

Last reported at 2015-Aug-16 04:09 UTC. Time now 2015-Aug-27 20:47 UTC.
Position N 35°03' E 140°12'.
Warning: this ship's position is 11 days out of date.

Length 64 m; draft 4.8 m.

Type: Tanker. MMSI: 431000508.

Date/timePositionNaut miles runAvg speedWind from/ knotsBaromVisibWave heightAir tempDewpointWater temp
2015-Aug-16 04:09N 35°03' E 140°12'912.3
2015-Aug-16 03:25N 34°57' E 140°03'1412.1
2015-Aug-16 02:16N 34°54' E 139°47'912.4
2015-Aug-16 01:33N 35°02' E 139°44'1312.7
2015-Aug-16 00:33N 35°15' E 139°46'1111.4
2015-Aug-15 23:33N 35°26' E 139°45'4 4.2
2015-Aug-15 22:33N 35°30' E 139°46'0 0.0
2015-Aug-15 21:18N 35°30' E 139°46'0 0.0
2015-Aug-15 20:30N 35°30' E 139°46'0 0.0
2015-Aug-15 19:30N 35°30' E 139°46'0 0.0
2015-Aug-15 18:30N 35°30' E 139°46'0 0.0
2015-Aug-15 17:30N 35°30' E 139°46'0 0.0
2015-Aug-15 16:33N 35°30' E 139°46'0 0.0
2015-Aug-15 15:33N 35°30' E 139°46'0 0.0
2015-Aug-15 14:33N 35°30' E 139°46'0 0.0
2015-Aug-15 13:33N 35°30' E 139°46'0 0.0
2015-Aug-15 12:33N 35°30' E 139°46'0 0.0
2015-Aug-15 11:33N 35°30' E 139°46'0 0.0
2015-Aug-15 10:33N 35°30' E 139°46'0 0.0
2015-Aug-15 09:33N 35°30' E 139°46'0 0.0
2015-Aug-15 08:33N 35°30' E 139°46'0 0.0
2015-Aug-15 07:33N 35°30' E 139°46'1 1.1
2015-Aug-15 06:32N 35°31' E 139°46'0 0.0
2015-Aug-15 05:32N 35°31' E 139°46'0 0.0
2015-Aug-15 04:32N 35°31' E 139°46'3 2.8
2015-Aug-15 03:33N 35°30' E 139°48'1 1.0
2015-Aug-15 02:33N 35°30' E 139°50'10 9.5
2015-Aug-15 01:33N 35°33' E 140°01'4 3.9
2015-Aug-15 00:31N 35°32' E 140°06'0 0.0
2015-Aug-14 23:31N 35°32' E 140°06'1 1.2
2015-Aug-14 22:22N 35°33' E 140°05'0 0.0
2015-Aug-14 21:22N 35°33' E 140°05'0 0.0
2015-Aug-14 20:28N 35°33' E 140°05'0 0.0
2015-Aug-14 19:28N 35°33' E 140°05'0 0.0
2015-Aug-14 17:28N 35°33' E 140°05'0 0.0
2015-Aug-14 16:04N 35°33' E 140°05'0 0.0
2015-Aug-14 15:31N 35°33' E 140°05'0 0.0
2015-Aug-14 14:16N 35°33' E 140°05'0 0.0
2015-Aug-14 13:22N 35°33' E 140°05'0 0.0
2015-Aug-14 12:28N 35°33' E 140°05'0 0.0
2015-Aug-14 11:16N 35°33' E 140°05'0 0.1
2015-Aug-14 10:10N 35°33' E 140°05'0 0.0
2015-Aug-14 09:28N 35°33' E 140°05'0 0.0
2015-Aug-14 08:22N 35°33' E 140°05'0 0.1
2015-Aug-14 07:25N 35°33' E 140°05'0 0.1
2015-Aug-14 06:33N 35°33' E 140°05'0 0.2
2015-Aug-14 05:34N 35°33' E 140°05'4 4.5
2015-Aug-14 04:33N 35°32' E 139°59'9 8.7
2015-Aug-14 03:33N 35°30' E 139°49'2 2.1
2015-Aug-14 02:33N 35°31' E 139°46'0 0.0
2015-Aug-14 01:33N 35°31' E 139°46'0 0.0
2015-Aug-14 00:33N 35°31' E 139°46'1 1.3
2015-Aug-13 23:33N 35°30' E 139°48'1 0.9
2015-Aug-13 22:31N 35°30' E 139°49'0 0.0
2015-Aug-13 21:31N 35°30' E 139°49'0 0.0
2015-Aug-13 20:31N 35°29' E 139°49'0 0.1
2015-Aug-13 19:31N 35°30' E 139°49'7 7.5
2015-Aug-13 18:33N 35°23' E 139°46'1211.6
2015-Aug-13 17:33N 35°11' E 139°47'1312.4
2015-Aug-13 16:32N 34°59' E 139°44'23 7.5
2015-Aug-13 13:32N 35°01' E 140°11'21 9.7
2015-Aug-13 11:23N 35°15' E 140°30'1411.1
2015-Aug-13 10:07N 35°26' E 140°40'21 0.8
2015-Aug-12 07:14N 35°44' E 140°54'1010.8
2015-Aug-12 06:16N 35°36' E 140°46'811.5
2015-Aug-12 05:33N 35°31' E 140°38'1211.4
2015-Aug-12 04:32N 35°21' E 140°31'2311.4
2015-Aug-12 02:29N 35°02' E 140°13'1612.2
2015-Aug-12 01:12N 34°53' E 139°58'1111.5
2015-Aug-12 00:13N 34°56' E 139°44'913.0
2015-Aug-11 23:33N 35°04' E 139°45'1312.8
2015-Aug-11 22:33N 35°17' E 139°45'1110.9
2015-Aug-11 21:33N 35°28' E 139°47'2 2.4
2015-Aug-11 20:31N 35°30' E 139°45'0 0.0
2015-Aug-11 19:31N 35°30' E 139°45'0 0.0
2015-Aug-11 18:31N 35°30' E 139°45'0 0.0
2015-Aug-11 17:31N 35°30' E 139°45'0 0.0
2015-Aug-11 16:31N 35°30' E 139°45'0 0.0
2015-Aug-11 15:31N 35°30' E 139°45'0 0.0
2015-Aug-11 14:31N 35°30' E 139°45'0 0.0
2015-Aug-11 13:31N 35°30' E 139°45'0 0.0
2015-Aug-11 12:31N 35°30' E 139°45'0 0.0
2015-Aug-11 11:31N 35°30' E 139°45'0 0.0
2015-Aug-11 10:31N 35°30' E 139°45'0 0.0
2015-Aug-11 09:31N 35°30' E 139°45'0 0.0
2015-Aug-11 08:31N 35°30' E 139°45'0 0.0
2015-Aug-11 07:31N 35°30' E 139°45'0 0.0
2015-Aug-11 06:31N 35°30' E 139°45'0 0.0
2015-Aug-11 05:31N 35°30' E 139°45'0 0.0
2015-Aug-11 04:28N 35°30' E 139°45'0 0.0
2015-Aug-11 03:31N 35°30' E 139°45'0 0.0
2015-Aug-11 02:31N 35°30' E 139°45'0 0.0
2015-Aug-11 01:31N 35°30' E 139°45'0 0.0
2015-Aug-11 00:28N 35°30' E 139°45'0 0.0
2015-Aug-10 23:31N 35°30' E 139°45'0 0.0
2015-Aug-10 22:25N 35°30' E 139°45'0 0.0
2015-Aug-10 21:31N 35°30' E 139°45'0 0.0
2015-Aug-10 20:31N 35°30' E 139°45'0 0.0
2015-Aug-10 19:31N 35°30' E 139°45'0 0.0
2015-Aug-10 18:31N 35°30' E 139°45'0 0.0
2015-Aug-10 17:31N 35°30' E 139°45'0 0.0
2015-Aug-10 16:31N 35°30' E 139°45'0 0.0
2015-Aug-10 15:28N 35°30' E 139°45'0 0.0
2015-Aug-10 14:31N 35°30' E 139°45'0 0.0
2015-Aug-10 13:31N 35°30' E 139°45'0 0.0
2015-Aug-10 12:31N 35°30' E 139°45'0 0.0
2015-Aug-10 11:31N 35°30' E 139°45'0 0.0
2015-Aug-10 10:31N 35°30' E 139°45'0 0.0
2015-Aug-10 09:31N 35°30' E 139°45'0 0.0
2015-Aug-10 08:31N 35°30' E 139°45'0 0.0
2015-Aug-10 07:31N 35°30' E 139°45'0 0.0
2015-Aug-10 06:28N 35°30' E 139°45'0 0.0
2015-Aug-10 05:31N 35°30' E 139°45'0 0.0
2015-Aug-10 04:31N 35°30' E 139°45'0 0.0
2015-Aug-10 03:31N 35°30' E 139°45'0 0.0
2015-Aug-10 02:31N 35°30' E 139°45'0 0.0
2015-Aug-10 01:31N 35°30' E 139°45'0 0.0
2015-Aug-10 00:33N 35°30' E 139°45'3 3.0
2015-Aug-09 23:33N 35°29' E 139°49'0 0.0
2015-Aug-09 22:33N 35°29' E 139°49'0 0.0
2015-Aug-09 21:33N 35°29' E 139°49'0 0.0
2015-Aug-09 20:33N 35°29' E 139°49'0 0.0
2015-Aug-09 19:30N 35°29' E 139°49'0 0.0
2015-Aug-09 18:33N 35°29' E 139°49'0 0.0
2015-Aug-09 17:33N 35°29' E 139°49'0 0.0
2015-Aug-09 16:33N 35°29' E 139°49'0 0.0
2015-Aug-09 15:33N 35°29' E 139°49'0 0.1
2015-Aug-09 14:33N 35°29' E 139°49'0 0.0
2015-Aug-09 13:33N 35°29' E 139°49'0 0.0
2015-Aug-09 12:30N 35°29' E 139°49'0 0.0
2015-Aug-09 11:33N 35°29' E 139°49'0 0.0
2015-Aug-09 10:33N 35°29' E 139°49'0 0.0
2015-Aug-09 09:33N 35°29' E 139°49'0 0.0
2015-Aug-09 08:33N 35°29' E 139°49'0 0.0
2015-Aug-09 07:33N 35°29' E 139°49'0 0.0
2015-Aug-09 06:33N 35°29' E 139°49'2 1.5
2015-Aug-09 05:33N 35°30' E 139°50'8 7.5
2015-Aug-09 04:28N 35°28' E 140°00'0 0.0
2015-Aug-09 03:22N 35°28' E 140°00'0 0.0
2015-Aug-09 02:25N 35°28' E 140°00'0 0.0
2015-Aug-09 01:31N 35°28' E 140°00'0 0.0
2015-Aug-09 00:31N 35°28' E 140°00'0 0.2
2015-Aug-08 23:34N 35°28' E 139°60'2 1.6
2015-Aug-08 22:31N 35°29' E 139°58'0 0.0
2015-Aug-08 21:31N 35°29' E 139°58'0 0.0
2015-Aug-08 20:19N 35°29' E 139°58'0 0.0
2015-Aug-08 19:31N 35°29' E 139°58'0 0.0
2015-Aug-08 18:31N 35°29' E 139°58'0 0.0
2015-Aug-08 17:28N 35°29' E 139°58'0 0.0
2015-Aug-08 16:22N 35°29' E 139°58'0 0.0
2015-Aug-08 15:22N 35°29' E 139°58'0 0.0
2015-Aug-08 14:22N 35°29' E 139°58'0 0.0
2015-Aug-08 13:31N 35°29' E 139°58'0 0.0
2015-Aug-08 12:31N 35°29' E 139°58'3 3.4
2015-Aug-08 11:33N 35°29' E 139°54'1010.3
2015-Aug-08 10:34N 35°21' E 139°45'1010.1
2015-Aug-08 09:34N 35°11' E 139°47'1110.8
2015-Aug-08 08:33N 35°02' E 139°40'  
Track history (hours):
 
Tides and Currents Weather Stations Pressure Air Temp Water Temp Dewpoint Dewpoint Depression Visibility Wind Speed Wind Dir Waves Ship Positions

Aiwamaru

Last reported at 2015-Aug-16 04:09 UTC. Time now 2015-Aug-27 20:47 UTC.
Position N 35°03' E 140°12'.
Warning: this ship's position is 11 days out of date.

Length 64 m; draft 4.8 m.

Type: Tanker. MMSI: 431000508.

Date/timePositionNaut miles runAvg speedWind from/ knotsBaromVisibWave heightAir tempDewpointWater temp
2015-Aug-16 04:09N 35°03' E 140°12'912.3
2015-Aug-16 03:25N 34°57' E 140°03'1412.1
2015-Aug-16 02:16N 34°54' E 139°47'912.4
2015-Aug-16 01:33N 35°02' E 139°44'1312.7
2015-Aug-16 00:33N 35°15' E 139°46'1111.4
2015-Aug-15 23:33N 35°26' E 139°45'4 4.2
2015-Aug-15 22:33N 35°30' E 139°46'0 0.0
2015-Aug-15 21:18N 35°30' E 139°46'0 0.0
2015-Aug-15 20:30N 35°30' E 139°46'0 0.0
2015-Aug-15 19:30N 35°30' E 139°46'0 0.0
2015-Aug-15 18:30N 35°30' E 139°46'0 0.0
2015-Aug-15 17:30N 35°30' E 139°46'0 0.0
2015-Aug-15 16:33N 35°30' E 139°46'0 0.0
2015-Aug-15 15:33N 35°30' E 139°46'0 0.0
2015-Aug-15 14:33N 35°30' E 139°46'0 0.0
2015-Aug-15 13:33N 35°30' E 139°46'0 0.0
2015-Aug-15 12:33N 35°30' E 139°46'0 0.0
2015-Aug-15 11:33N 35°30' E 139°46'0 0.0
2015-Aug-15 10:33N 35°30' E 139°46'0 0.0
2015-Aug-15 09:33N 35°30' E 139°46'0 0.0
2015-Aug-15 08:33N 35°30' E 139°46'0 0.0
2015-Aug-15 07:33N 35°30' E 139°46'1 1.1
2015-Aug-15 06:32N 35°31' E 139°46'0 0.0
2015-Aug-15 05:32N 35°31' E 139°46'0 0.0
2015-Aug-15 04:32N 35°31' E 139°46'3 2.8
2015-Aug-15 03:33N 35°30' E 139°48'1 1.0
2015-Aug-15 02:33N 35°30' E 139°50'10 9.5
2015-Aug-15 01:33N 35°33' E 140°01'4 3.9
2015-Aug-15 00:31N 35°32' E 140°06'0 0.0
2015-Aug-14 23:31N 35°32' E 140°06'1 1.2
2015-Aug-14 22:22N 35°33' E 140°05'0 0.0
2015-Aug-14 21:22N 35°33' E 140°05'0 0.0
2015-Aug-14 20:28N 35°33' E 140°05'0 0.0
2015-Aug-14 19:28N 35°33' E 140°05'0 0.0
2015-Aug-14 17:28N 35°33' E 140°05'0 0.0
2015-Aug-14 16:04N 35°33' E 140°05'0 0.0
2015-Aug-14 15:31N 35°33' E 140°05'0 0.0
2015-Aug-14 14:16N 35°33' E 140°05'0 0.0
2015-Aug-14 13:22N 35°33' E 140°05'0 0.0
2015-Aug-14 12:28N 35°33' E 140°05'0 0.0
2015-Aug-14 11:16N 35°33' E 140°05'0 0.1
2015-Aug-14 10:10N 35°33' E 140°05'0 0.0
2015-Aug-14 09:28N 35°33' E 140°05'0 0.0
2015-Aug-14 08:22N 35°33' E 140°05'0 0.1
2015-Aug-14 07:25N 35°33' E 140°05'0 0.1
2015-Aug-14 06:33N 35°33' E 140°05'0 0.2
2015-Aug-14 05:34N 35°33' E 140°05'4 4.5
2015-Aug-14 04:33N 35°32' E 139°59'9 8.7
2015-Aug-14 03:33N 35°30' E 139°49'2 2.1
2015-Aug-14 02:33N 35°31' E 139°46'0 0.0
2015-Aug-14 01:33N 35°31' E 139°46'0 0.0
2015-Aug-14 00:33N 35°31' E 139°46'1 1.3
2015-Aug-13 23:33N 35°30' E 139°48'1 0.9
2015-Aug-13 22:31N 35°30' E 139°49'0 0.0
2015-Aug-13 21:31N 35°30' E 139°49'0 0.0
2015-Aug-13 20:31N 35°29' E 139°49'0 0.1
2015-Aug-13 19:31N 35°30' E 139°49'7 7.5
2015-Aug-13 18:33N 35°23' E 139°46'1211.6
2015-Aug-13 17:33N 35°11' E 139°47'1312.4
2015-Aug-13 16:32N 34°59' E 139°44'23 7.5
2015-Aug-13 13:32N 35°01' E 140°11'21 9.7
2015-Aug-13 11:23N 35°15' E 140°30'1411.1
2015-Aug-13 10:07N 35°26' E 140°40'21 0.8
2015-Aug-12 07:14N 35°44' E 140°54'1010.8
2015-Aug-12 06:16N 35°36' E 140°46'811.5
2015-Aug-12 05:33N 35°31' E 140°38'1211.4
2015-Aug-12 04:32N 35°21' E 140°31'2311.4
2015-Aug-12 02:29N 35°02' E 140°13'1612.2
2015-Aug-12 01:12N 34°53' E 139°58'1111.5
2015-Aug-12 00:13N 34°56' E 139°44'913.0
2015-Aug-11 23:33N 35°04' E 139°45'1312.8
2015-Aug-11 22:33N 35°17' E 139°45'1110.9
2015-Aug-11 21:33N 35°28' E 139°47'2 2.4
2015-Aug-11 20:31N 35°30' E 139°45'0 0.0
2015-Aug-11 19:31N 35°30' E 139°45'0 0.0
2015-Aug-11 18:31N 35°30' E 139°45'0 0.0
2015-Aug-11 17:31N 35°30' E 139°45'0 0.0
2015-Aug-11 16:31N 35°30' E 139°45'0 0.0
2015-Aug-11 15:31N 35°30' E 139°45'0 0.0
2015-Aug-11 14:31N 35°30' E 139°45'0 0.0
2015-Aug-11 13:31N 35°30' E 139°45'0 0.0
2015-Aug-11 12:31N 35°30' E 139°45'0 0.0
2015-Aug-11 11:31N 35°30' E 139°45'0 0.0
2015-Aug-11 10:31N 35°30' E 139°45'0 0.0
2015-Aug-11 09:31N 35°30' E 139°45'0 0.0
2015-Aug-11 08:31N 35°30' E 139°45'0 0.0
2015-Aug-11 07:31N 35°30' E 139°45'0 0.0
2015-Aug-11 06:31N 35°30' E 139°45'0 0.0
2015-Aug-11 05:31N 35°30' E 139°45'0 0.0
2015-Aug-11 04:28N 35°30' E 139°45'0 0.0
2015-Aug-11 03:31N 35°30' E 139°45'0 0.0
2015-Aug-11 02:31N 35°30' E 139°45'0 0.0
2015-Aug-11 01:31N 35°30' E 139°45'0 0.0
2015-Aug-11 00:28N 35°30' E 139°45'0 0.0
2015-Aug-10 23:31N 35°30' E 139°45'0 0.0
2015-Aug-10 22:25N 35°30' E 139°45'0 0.0
2015-Aug-10 21:31N 35°30' E 139°45'0 0.0
2015-Aug-10 20:31N 35°30' E 139°45'0 0.0
2015-Aug-10 19:31N 35°30' E 139°45'0 0.0
2015-Aug-10 18:31N 35°30' E 139°45'0 0.0
2015-Aug-10 17:31N 35°30' E 139°45'0 0.0
2015-Aug-10 16:31N 35°30' E 139°45'0 0.0
2015-Aug-10 15:28N 35°30' E 139°45'0 0.0
2015-Aug-10 14:31N 35°30' E 139°45'0 0.0
2015-Aug-10 13:31N 35°30' E 139°45'0 0.0
2015-Aug-10 12:31N 35°30' E 139°45'0 0.0
2015-Aug-10 11:31N 35°30' E 139°45'0 0.0
2015-Aug-10 10:31N 35°30' E 139°45'0 0.0
2015-Aug-10 09:31N 35°30' E 139°45'0 0.0
2015-Aug-10 08:31N 35°30' E 139°45'0 0.0
2015-Aug-10 07:31N 35°30' E 139°45'0 0.0
2015-Aug-10 06:28N 35°30' E 139°45'0 0.0
2015-Aug-10 05:31N 35°30' E 139°45'0 0.0
2015-Aug-10 04:31N 35°30' E 139°45'0 0.0
2015-Aug-10 03:31N 35°30' E 139°45'0 0.0
2015-Aug-10 02:31N 35°30' E 139°45'0 0.0
2015-Aug-10 01:31N 35°30' E 139°45'0 0.0
2015-Aug-10 00:33N 35°30' E 139°45'3 3.0
2015-Aug-09 23:33N 35°29' E 139°49'0 0.0
2015-Aug-09 22:33N 35°29' E 139°49'0 0.0
2015-Aug-09 21:33N 35°29' E 139°49'0 0.0
2015-Aug-09 20:33N 35°29' E 139°49'0 0.0
2015-Aug-09 19:30N 35°29' E 139°49'0 0.0
2015-Aug-09 18:33N 35°29' E 139°49'0 0.0
2015-Aug-09 17:33N 35°29' E 139°49'0 0.0
2015-Aug-09 16:33N 35°29' E 139°49'0 0.0
2015-Aug-09 15:33N 35°29' E 139°49'0 0.1
2015-Aug-09 14:33N 35°29' E 139°49'0 0.0
2015-Aug-09 13:33N 35°29' E 139°49'0 0.0
2015-Aug-09 12:30N 35°29' E 139°49'0 0.0
2015-Aug-09 11:33N 35°29' E 139°49'0 0.0
2015-Aug-09 10:33N 35°29' E 139°49'0 0.0
2015-Aug-09 09:33N 35°29' E 139°49'0 0.0
2015-Aug-09 08:33N 35°29' E 139°49'0 0.0
2015-Aug-09 07:33N 35°29' E 139°49'0 0.0
2015-Aug-09 06:33N 35°29' E 139°49'2 1.5
2015-Aug-09 05:33N 35°30' E 139°50'8 7.5
2015-Aug-09 04:28N 35°28' E 140°00'0 0.0
2015-Aug-09 03:22N 35°28' E 140°00'0 0.0
2015-Aug-09 02:25N 35°28' E 140°00'0 0.0
2015-Aug-09 01:31N 35°28' E 140°00'0 0.0
2015-Aug-09 00:31N 35°28' E 140°00'0 0.2
2015-Aug-08 23:34N 35°28' E 139°60'2 1.6
2015-Aug-08 22:31N 35°29' E 139°58'0 0.0
2015-Aug-08 21:31N 35°29' E 139°58'0 0.0
2015-Aug-08 20:19N 35°29' E 139°58'0 0.0
2015-Aug-08 19:31N 35°29' E 139°58'0 0.0
2015-Aug-08 18:31N 35°29' E 139°58'0 0.0
2015-Aug-08 17:28N 35°29' E 139°58'0 0.0
2015-Aug-08 16:22N 35°29' E 139°58'0 0.0
2015-Aug-08 15:22N 35°29' E 139°58'0 0.0
2015-Aug-08 14:22N 35°29' E 139°58'0 0.0
2015-Aug-08 13:31N 35°29' E 139°58'0 0.0
2015-Aug-08 12:31N 35°29' E 139°58'3 3.4
2015-Aug-08 11:33N 35°29' E 139°54'1010.3
2015-Aug-08 10:34N 35°21' E 139°45'1010.1
2015-Aug-08 09:34N 35°11' E 139°47'1110.8
2015-Aug-08 08:33N 35°02' E 139°40'  

Dump ship's entire track history